sensor_id;sensor_type;location;lat;lon;timestamp;P1;durP1;ratioP1;P2;durP2;ratioP2
30287;SDS011;17103;48.316;11.558;2023-02-26T00:01:14;1.02;;;0.80;;
30287;SDS011;17103;48.316;11.558;2023-02-26T00:03:42;2.20;;;0.50;;
30287;SDS011;17103;48.316;11.558;2023-02-26T00:06:08;0.65;;;0.52;;
30287;SDS011;17103;48.316;11.558;2023-02-26T00:08:33;0.77;;;0.40;;
30287;SDS011;17103;48.316;11.558;2023-02-26T00:10:59;2.53;;;0.55;;
30287;SDS011;17103;48.316;11.558;2023-02-26T00:13:28;1.05;;;0.60;;
30287;SDS011;17103;48.316;11.558;2023-02-26T00:15:58;0.50;;;0.50;;
30287;SDS011;17103;48.316;11.558;2023-02-26T00:18:25;0.85;;;0.52;;
30287;SDS011;17103;48.316;11.558;2023-02-26T00:20:52;0.80;;;0.30;;
30287;SDS011;17103;48.316;11.558;2023-02-26T00:23:17;0.32;;;0.30;;
30287;SDS011;17103;48.316;11.558;2023-02-26T00:25:44;0.40;;;0.30;;
30287;SDS011;17103;48.316;11.558;2023-02-26T00:28:10;0.20;;;0.20;;
30287;SDS011;17103;48.316;11.558;2023-02-26T00:30:36;0.50;;;0.30;;
30287;SDS011;17103;48.316;11.558;2023-02-26T00:33:02;0.75;;;0.40;;
30287;SDS011;17103;48.316;11.558;2023-02-26T00:35:29;0.30;;;0.20;;
30287;SDS011;17103;48.316;11.558;2023-02-26T00:38:09;0.25;;;0.25;;
30287;SDS011;17103;48.316;11.558;2023-02-26T00:40:45;0.50;;;0.32;;
30287;SDS011;17103;48.316;11.558;2023-02-26T00:43:33;0.43;;;0.35;;
30287;SDS011;17103;48.316;11.558;2023-02-26T00:48:52;0.40;;;0.20;;
30287;SDS011;17103;48.316;11.558;2023-02-26T00:51:30;0.23;;;0.20;;
30287;SDS011;17103;48.316;11.558;2023-02-26T00:54:18;0.40;;;0.20;;
30287;SDS011;17103;48.316;11.558;2023-02-26T00:56:49;0.50;;;0.30;;
30287;SDS011;17103;48.316;11.558;2023-02-26T00:59:16;0.60;;;0.40;;
30287;SDS011;17103;48.316;11.558;2023-02-26T01:01:42;0.63;;;0.50;;
30287;SDS011;17103;48.316;11.558;2023-02-26T01:04:09;0.82;;;0.50;;
30287;SDS011;17103;48.316;11.558;2023-02-26T01:06:42;0.82;;;0.60;;
30287;SDS011;17103;48.316;11.558;2023-02-26T01:11:52;0.57;;;0.40;;
30287;SDS011;17103;48.316;11.558;2023-02-26T01:14:19;0.75;;;0.40;;
30287;SDS011;17103;48.316;11.558;2023-02-26T01:16:48;0.57;;;0.30;;
30287;SDS011;17103;48.316;11.558;2023-02-26T01:19:40;0.93;;;0.40;;
30287;SDS011;17103;48.316;11.558;2023-02-26T01:22:09;0.95;;;0.30;;
30287;SDS011;17103;48.316;11.558;2023-02-26T01:24:42;1.45;;;0.40;;
30287;SDS011;17103;48.316;11.558;2023-02-26T01:27:08;0.77;;;0.40;;
30287;SDS011;17103;48.316;11.558;2023-02-26T01:29:33;2.78;;;0.77;;
30287;SDS011;17103;48.316;11.558;2023-02-26T01:32:05;1.25;;;0.40;;
30287;SDS011;17103;48.316;11.558;2023-02-26T01:37:20;1.23;;;0.50;;
30287;SDS011;17103;48.316;11.558;2023-02-26T01:42:26;0.63;;;0.30;;
30287;SDS011;17103;48.316;11.558;2023-02-26T01:47:38;4.43;;;1.85;;
30287;SDS011;17103;48.316;11.558;2023-02-26T01:55:12;0.20;;;0.20;;
30287;SDS011;17103;48.316;11.558;2023-02-26T01:57:39;0.40;;;0.30;;
30287;SDS011;17103;48.316;11.558;2023-02-26T02:00:05;0.93;;;0.38;;
30287;SDS011;17103;48.316;11.558;2023-02-26T02:02:32;2.05;;;0.40;;
30287;SDS011;17103;48.316;11.558;2023-02-26T02:05:00;0.65;;;0.40;;
30287;SDS011;17103;48.316;11.558;2023-02-26T02:07:28;1.95;;;0.38;;
30287;SDS011;17103;48.316;11.558;2023-02-26T02:09:54;0.70;;;0.30;;
30287;SDS011;17103;48.316;11.558;2023-02-26T02:12:31;1.05;;;0.50;;
30287;SDS011;17103;48.316;11.558;2023-02-26T02:17:40;1.00;;;0.50;;
30287;SDS011;17103;48.316;11.558;2023-02-26T02:23:21;1.00;;;0.30;;
30287;SDS011;17103;48.316;11.558;2023-02-26T02:31:34;1.45;;;0.38;;
30287;SDS011;17103;48.316;11.558;2023-02-26T02:37:00;0.85;;;0.40;;
30287;SDS011;17103;48.316;11.558;2023-02-26T02:39:32;1.30;;;0.50;;
30287;SDS011;17103;48.316;11.558;2023-02-26T02:42:05;2.05;;;0.40;;
30287;SDS011;17103;48.316;11.558;2023-02-26T02:44:42;1.52;;;0.20;;
30287;SDS011;17103;48.316;11.558;2023-02-26T02:47:12;2.15;;;0.30;;
30287;SDS011;17103;48.316;11.558;2023-02-26T02:49:43;1.00;;;0.32;;
30287;SDS011;17103;48.316;11.558;2023-02-26T02:52:14;2.10;;;0.20;;
30287;SDS011;17103;48.316;11.558;2023-02-26T02:57:24;0.35;;;0.20;;
30287;SDS011;17103;48.316;11.558;2023-02-26T02:59:56;0.98;;;0.20;;
30287;SDS011;17103;48.316;11.558;2023-02-26T03:04:59;2.58;;;0.35;;
30287;SDS011;17103;48.316;11.558;2023-02-26T03:07:25;2.72;;;0.50;;
30287;SDS011;17103;48.316;11.558;2023-02-26T03:09:50;2.63;;;0.80;;
30287;SDS011;17103;48.316;11.558;2023-02-26T03:12:16;0.82;;;0.20;;
30287;SDS011;17103;48.316;11.558;2023-02-26T03:14:42;1.08;;;0.25;;
30287;SDS011;17103;48.316;11.558;2023-02-26T03:22:37;1.27;;;0.43;;
30287;SDS011;17103;48.316;11.558;2023-02-26T03:25:08;0.77;;;0.30;;
30287;SDS011;17103;48.316;11.558;2023-02-26T03:38:23;1.85;;;0.45;;
30287;SDS011;17103;48.316;11.558;2023-02-26T03:40:56;2.05;;;0.30;;
30287;SDS011;17103;48.316;11.558;2023-02-26T03:43:40;1.95;;;0.32;;
30287;SDS011;17103;48.316;11.558;2023-02-26T03:46:17;2.80;;;0.55;;
30287;SDS011;17103;48.316;11.558;2023-02-26T03:48:47;1.85;;;0.35;;
30287;SDS011;17103;48.316;11.558;2023-02-26T03:51:15;1.95;;;0.52;;
30287;SDS011;17103;48.316;11.558;2023-02-26T03:53:51;1.08;;;0.50;;
30287;SDS011;17103;48.316;11.558;2023-02-26T03:56:30;4.32;;;0.93;;
30287;SDS011;17103;48.316;11.558;2023-02-26T03:59:05;0.55;;;0.30;;
30287;SDS011;17103;48.316;11.558;2023-02-26T04:01:38;1.60;;;0.20;;
30287;SDS011;17103;48.316;11.558;2023-02-26T04:04:11;1.27;;;0.52;;
30287;SDS011;17103;48.316;11.558;2023-02-26T04:06:44;0.85;;;0.40;;
30287;SDS011;17103;48.316;11.558;2023-02-26T04:09:11;1.67;;;0.35;;
30287;SDS011;17103;48.316;11.558;2023-02-26T04:11:37;0.80;;;0.30;;
30287;SDS011;17103;48.316;11.558;2023-02-26T04:14:03;0.82;;;0.30;;
30287;SDS011;17103;48.316;11.558;2023-02-26T04:16:29;1.00;;;0.40;;
30287;SDS011;17103;48.316;11.558;2023-02-26T04:18:55;1.60;;;0.43;;
30287;SDS011;17103;48.316;11.558;2023-02-26T04:21:21;1.00;;;0.40;;
30287;SDS011;17103;48.316;11.558;2023-02-26T04:23:47;1.80;;;0.50;;
30287;SDS011;17103;48.316;11.558;2023-02-26T04:26:13;1.95;;;0.95;;
30287;SDS011;17103;48.316;11.558;2023-02-26T04:28:39;4.57;;;1.85;;
30287;SDS011;17103;48.316;11.558;2023-02-26T04:31:05;2.80;;;0.50;;
30287;SDS011;17103;48.316;11.558;2023-02-26T04:33:32;3.08;;;0.43;;
30287;SDS011;17103;48.316;11.558;2023-02-26T04:35:58;1.95;;;0.40;;
30287;SDS011;17103;48.316;11.558;2023-02-26T04:38:24;0.40;;;0.30;;
30287;SDS011;17103;48.316;11.558;2023-02-26T04:40:51;1.40;;;0.50;;
30287;SDS011;17103;48.316;11.558;2023-02-26T04:43:16;2.22;;;0.20;;
30287;SDS011;17103;48.316;11.558;2023-02-26T04:45:45;0.70;;;0.40;;
30287;SDS011;17103;48.316;11.558;2023-02-26T04:48:12;2.10;;;1.05;;
30287;SDS011;17103;48.316;11.558;2023-02-26T04:50:38;2.85;;;0.50;;
30287;SDS011;17103;48.316;11.558;2023-02-26T04:53:04;1.63;;;0.40;;
30287;SDS011;17103;48.316;11.558;2023-02-26T04:55:30;1.92;;;0.70;;
30287;SDS011;17103;48.316;11.558;2023-02-26T04:57:55;3.28;;;0.63;;
30287;SDS011;17103;48.316;11.558;2023-02-26T05:00:21;5.35;;;1.23;;
30287;SDS011;17103;48.316;11.558;2023-02-26T05:02:47;2.88;;;0.50;;
30287;SDS011;17103;48.316;11.558;2023-02-26T05:05:12;5.10;;;0.80;;
30287;SDS011;17103;48.316;11.558;2023-02-26T05:07:38;3.30;;;0.50;;
30287;SDS011;17103;48.316;11.558;2023-02-26T05:10:04;1.10;;;0.60;;
30287;SDS011;17103;48.316;11.558;2023-02-26T05:12:30;1.70;;;0.63;;
30287;SDS011;17103;48.316;11.558;2023-02-26T05:14:57;1.45;;;0.47;;
30287;SDS011;17103;48.316;11.558;2023-02-26T05:17:23;2.13;;;0.73;;
30287;SDS011;17103;48.316;11.558;2023-02-26T05:19:49;1.45;;;0.57;;
30287;SDS011;17103;48.316;11.558;2023-02-26T05:22:14;1.63;;;0.60;;
30287;SDS011;17103;48.316;11.558;2023-02-26T05:24:40;1.45;;;0.60;;
30287;SDS011;17103;48.316;11.558;2023-02-26T05:27:05;3.28;;;1.00;;
30287;SDS011;17103;48.316;11.558;2023-02-26T05:29:31;1.92;;;0.60;;
30287;SDS011;17103;48.316;11.558;2023-02-26T05:31:57;2.95;;;0.95;;
30287;SDS011;17103;48.316;11.558;2023-02-26T05:34:22;0.93;;;0.30;;
30287;SDS011;17103;48.316;11.558;2023-02-26T05:36:48;1.48;;;0.40;;
30287;SDS011;17103;48.316;11.558;2023-02-26T05:39:13;2.55;;;0.60;;
30287;SDS011;17103;48.316;11.558;2023-02-26T05:41:39;1.23;;;0.43;;
30287;SDS011;17103;48.316;11.558;2023-02-26T05:44:05;1.90;;;0.65;;
30287;SDS011;17103;48.316;11.558;2023-02-26T05:46:32;2.58;;;0.57;;
30287;SDS011;17103;48.316;11.558;2023-02-26T05:48:57;1.67;;;0.40;;
30287;SDS011;17103;48.316;11.558;2023-02-26T05:51:23;0.75;;;0.40;;
30287;SDS011;17103;48.316;11.558;2023-02-26T05:53:49;3.42;;;0.52;;
30287;SDS011;17103;48.316;11.558;2023-02-26T05:56:14;2.05;;;0.63;;
30287;SDS011;17103;48.316;11.558;2023-02-26T05:58:40;1.85;;;0.50;;
30287;SDS011;17103;48.316;11.558;2023-02-26T06:01:06;2.63;;;0.70;;
30287;SDS011;17103;48.316;11.558;2023-02-26T06:03:31;2.35;;;0.57;;
30287;SDS011;17103;48.316;11.558;2023-02-26T06:05:57;2.38;;;0.65;;
30287;SDS011;17103;48.316;11.558;2023-02-26T06:08:22;0.80;;;0.38;;
30287;SDS011;17103;48.316;11.558;2023-02-26T06:10:49;2.15;;;1.05;;
30287;SDS011;17103;48.316;11.558;2023-02-26T06:13:15;2.40;;;0.65;;
30287;SDS011;17103;48.316;11.558;2023-02-26T06:15:41;1.73;;;0.60;;
30287;SDS011;17103;48.316;11.558;2023-02-26T06:18:06;1.75;;;0.60;;
30287;SDS011;17103;48.316;11.558;2023-02-26T06:20:32;0.80;;;0.40;;
30287;SDS011;17103;48.316;11.558;2023-02-26T06:22:58;1.63;;;0.45;;
30287;SDS011;17103;48.316;11.558;2023-02-26T06:25:24;2.15;;;0.65;;
30287;SDS011;17103;48.316;11.558;2023-02-26T06:27:50;1.27;;;0.45;;
30287;SDS011;17103;48.316;11.558;2023-02-26T06:30:15;1.80;;;0.50;;
30287;SDS011;17103;48.316;11.558;2023-02-26T06:32:42;2.30;;;0.65;;
30287;SDS011;17103;48.316;11.558;2023-02-26T06:35:08;2.88;;;1.02;;
30287;SDS011;17103;48.316;11.558;2023-02-26T06:37:34;2.83;;;0.90;;
30287;SDS011;17103;48.316;11.558;2023-02-26T06:40:00;1.67;;;0.57;;
30287;SDS011;17103;48.316;11.558;2023-02-26T06:42:26;1.83;;;0.50;;
30287;SDS011;17103;48.316;11.558;2023-02-26T06:44:52;2.13;;;0.43;;
30287;SDS011;17103;48.316;11.558;2023-02-26T06:47:17;1.38;;;0.73;;
30287;SDS011;17103;48.316;11.558;2023-02-26T06:49:43;1.13;;;0.63;;
30287;SDS011;17103;48.316;11.558;2023-02-26T06:52:08;1.30;;;0.50;;
30287;SDS011;17103;48.316;11.558;2023-02-26T06:54:34;10.13;;;1.70;;
30287;SDS011;17103;48.316;11.558;2023-02-26T06:57:00;2.17;;;0.80;;
30287;SDS011;17103;48.316;11.558;2023-02-26T06:59:27;2.88;;;0.82;;
30287;SDS011;17103;48.316;11.558;2023-02-26T07:01:53;1.17;;;0.55;;
30287;SDS011;17103;48.316;11.558;2023-02-26T07:04:18;3.90;;;0.63;;
30287;SDS011;17103;48.316;11.558;2023-02-26T07:06:44;2.50;;;0.70;;
30287;SDS011;17103;48.316;11.558;2023-02-26T07:09:09;2.58;;;1.08;;
30287;SDS011;17103;48.316;11.558;2023-02-26T07:11:35;3.38;;;0.73;;
30287;SDS011;17103;48.316;11.558;2023-02-26T07:14:01;1.08;;;0.50;;
30287;SDS011;17103;48.316;11.558;2023-02-26T07:16:26;1.42;;;0.57;;
30287;SDS011;17103;48.316;11.558;2023-02-26T07:18:52;1.73;;;0.90;;
30287;SDS011;17103;48.316;11.558;2023-02-26T07:21:18;3.88;;;1.05;;
30287;SDS011;17103;48.316;11.558;2023-02-26T07:23:43;2.42;;;0.60;;
30287;SDS011;17103;48.316;11.558;2023-02-26T07:26:09;1.73;;;0.50;;
30287;SDS011;17103;48.316;11.558;2023-02-26T07:28:34;4.88;;;0.65;;
30287;SDS011;17103;48.316;11.558;2023-02-26T07:31:00;1.42;;;0.70;;
30287;SDS011;17103;48.316;11.558;2023-02-26T07:33:26;2.85;;;0.80;;
30287;SDS011;17103;48.316;11.558;2023-02-26T07:35:52;1.83;;;0.75;;
30287;SDS011;17103;48.316;11.558;2023-02-26T07:38:18;1.63;;;0.70;;
30287;SDS011;17103;48.316;11.558;2023-02-26T07:40:44;2.00;;;0.93;;
30287;SDS011;17103;48.316;11.558;2023-02-26T07:43:11;1.83;;;0.73;;
30287;SDS011;17103;48.316;11.558;2023-02-26T07:45:37;9.40;;;1.85;;
30287;SDS011;17103;48.316;11.558;2023-02-26T07:48:02;1.40;;;0.82;;
30287;SDS011;17103;48.316;11.558;2023-02-26T07:50:28;1.13;;;0.70;;
30287;SDS011;17103;48.316;11.558;2023-02-26T07:52:54;2.35;;;0.68;;
30287;SDS011;17103;48.316;11.558;2023-02-26T07:55:20;0.93;;;0.52;;
30287;SDS011;17103;48.316;11.558;2023-02-26T07:57:45;2.28;;;0.70;;
30287;SDS011;17103;48.316;11.558;2023-02-26T08:00:11;3.35;;;0.60;;
30287;SDS011;17103;48.316;11.558;2023-02-26T08:02:38;2.05;;;0.60;;
30287;SDS011;17103;48.316;11.558;2023-02-26T08:05:04;2.10;;;0.70;;
30287;SDS011;17103;48.316;11.558;2023-02-26T08:07:30;1.77;;;0.50;;
30287;SDS011;17103;48.316;11.558;2023-02-26T08:09:56;2.22;;;0.85;;
30287;SDS011;17103;48.316;11.558;2023-02-26T08:12:22;1.00;;;0.60;;
30287;SDS011;17103;48.316;11.558;2023-02-26T08:14:48;2.75;;;0.55;;
30287;SDS011;17103;48.316;11.558;2023-02-26T08:17:13;1.33;;;0.68;;
30287;SDS011;17103;48.316;11.558;2023-02-26T08:19:39;1.88;;;0.60;;
30287;SDS011;17103;48.316;11.558;2023-02-26T08:22:05;1.65;;;0.82;;
30287;SDS011;17103;48.316;11.558;2023-02-26T08:24:30;2.13;;;0.60;;
30287;SDS011;17103;48.316;11.558;2023-02-26T08:26:56;3.00;;;0.60;;
30287;SDS011;17103;48.316;11.558;2023-02-26T08:29:22;2.35;;;1.02;;
30287;SDS011;17103;48.316;11.558;2023-02-26T08:31:48;1.20;;;0.50;;
30287;SDS011;17103;48.316;11.558;2023-02-26T08:34:13;1.45;;;0.65;;
30287;SDS011;17103;48.316;11.558;2023-02-26T08:36:39;0.63;;;0.50;;
30287;SDS011;17103;48.316;11.558;2023-02-26T08:39:06;2.42;;;0.90;;
30287;SDS011;17103;48.316;11.558;2023-02-26T08:41:32;2.20;;;0.68;;
30287;SDS011;17103;48.316;11.558;2023-02-26T08:44:00;2.80;;;0.90;;
30287;SDS011;17103;48.316;11.558;2023-02-26T08:46:26;1.85;;;0.57;;
30287;SDS011;17103;48.316;11.558;2023-02-26T08:48:52;2.28;;;1.50;;
30287;SDS011;17103;48.316;11.558;2023-02-26T08:51:21;0.70;;;0.40;;
30287;SDS011;17103;48.316;11.558;2023-02-26T08:53:47;1.55;;;0.75;;
30287;SDS011;17103;48.316;11.558;2023-02-26T08:56:14;1.10;;;0.88;;
30287;SDS011;17103;48.316;11.558;2023-02-26T08:58:41;1.63;;;0.63;;
30287;SDS011;17103;48.316;11.558;2023-02-26T09:01:06;1.63;;;1.10;;
30287;SDS011;17103;48.316;11.558;2023-02-26T09:03:32;0.85;;;0.70;;
30287;SDS011;17103;48.316;11.558;2023-02-26T09:05:58;1.42;;;1.20;;
30287;SDS011;17103;48.316;11.558;2023-02-26T09:08:23;1.98;;;0.88;;
30287;SDS011;17103;48.316;11.558;2023-02-26T09:10:49;1.45;;;0.90;;
30287;SDS011;17103;48.316;11.558;2023-02-26T09:13:15;1.50;;;1.33;;
30287;SDS011;17103;48.316;11.558;2023-02-26T09:15:41;2.58;;;0.98;;
30287;SDS011;17103;48.316;11.558;2023-02-26T09:18:07;2.08;;;0.68;;
30287;SDS011;17103;48.316;11.558;2023-02-26T09:20:39;1.75;;;0.85;;
30287;SDS011;17103;48.316;11.558;2023-02-26T09:23:06;3.00;;;1.20;;
30287;SDS011;17103;48.316;11.558;2023-02-26T09:25:31;1.70;;;1.20;;
30287;SDS011;17103;48.316;11.558;2023-02-26T09:27:57;1.75;;;1.08;;
30287;SDS011;17103;48.316;11.558;2023-02-26T09:30:22;3.85;;;2.08;;
30287;SDS011;17103;48.316;11.558;2023-02-26T09:32:48;3.28;;;1.77;;
30287;SDS011;17103;48.316;11.558;2023-02-26T09:35:14;4.20;;;2.13;;
30287;SDS011;17103;48.316;11.558;2023-02-26T09:37:39;2.92;;;1.23;;
30287;SDS011;17103;48.316;11.558;2023-02-26T09:40:05;2.50;;;1.67;;
30287;SDS011;17103;48.316;11.558;2023-02-26T09:44:58;2.33;;;1.45;;
30287;SDS011;17103;48.316;11.558;2023-02-26T09:55:26;4.05;;;1.88;;
30287;SDS011;17103;48.316;11.558;2023-02-26T09:57:59;5.18;;;2.13;;
30287;SDS011;17103;48.316;11.558;2023-02-26T10:08:13;1.90;;;1.27;;
30287;SDS011;17103;48.316;11.558;2023-02-26T10:10:44;3.25;;;1.30;;
30287;SDS011;17103;48.316;11.558;2023-02-26T10:13:34;2.97;;;1.98;;
30287;SDS011;17103;48.316;11.558;2023-02-26T10:16:22;4.65;;;1.80;;
30287;SDS011;17103;48.316;11.558;2023-02-26T10:19:04;6.68;;;2.15;;
30287;SDS011;17103;48.316;11.558;2023-02-26T10:24:21;1.35;;;0.98;;
30287;SDS011;17103;48.316;11.558;2023-02-26T10:27:05;1.65;;;0.95;;
30287;SDS011;17103;48.316;11.558;2023-02-26T10:29:39;2.75;;;0.93;;
30287;SDS011;17103;48.316;11.558;2023-02-26T10:34:56;2.08;;;1.10;;
30287;SDS011;17103;48.316;11.558;2023-02-26T10:37:46;1.85;;;1.00;;
30287;SDS011;17103;48.316;11.558;2023-02-26T10:45:57;1.80;;;1.20;;
30287;SDS011;17103;48.316;11.558;2023-02-26T10:51:35;0.95;;;0.70;;
30287;SDS011;17103;48.316;11.558;2023-02-26T10:54:18;2.45;;;1.00;;
30287;SDS011;17103;48.316;11.558;2023-02-26T10:56:52;1.45;;;0.90;;
30287;SDS011;17103;48.316;11.558;2023-02-26T10:59:17;0.82;;;0.63;;
30287;SDS011;17103;48.316;11.558;2023-02-26T11:01:43;1.70;;;0.68;;
30287;SDS011;17103;48.316;11.558;2023-02-26T11:04:17;0.95;;;0.70;;
30287;SDS011;17103;48.316;11.558;2023-02-26T11:09:25;1.20;;;1.00;;
30287;SDS011;17103;48.316;11.558;2023-02-26T11:11:55;0.82;;;0.65;;
30287;SDS011;17103;48.316;11.558;2023-02-26T11:14:30;2.25;;;1.08;;
30287;SDS011;17103;48.316;11.558;2023-02-26T11:16:58;1.23;;;0.70;;
30287;SDS011;17103;48.316;11.558;2023-02-26T11:19:38;0.70;;;0.50;;
30287;SDS011;17103;48.316;11.558;2023-02-26T11:22:11;1.15;;;0.77;;
30287;SDS011;17103;48.316;11.558;2023-02-26T11:24:43;0.73;;;0.63;;
30287;SDS011;17103;48.316;11.558;2023-02-26T11:27:13;1.67;;;0.57;;
30287;SDS011;17103;48.316;11.558;2023-02-26T11:29:47;0.93;;;0.50;;
30287;SDS011;17103;48.316;11.558;2023-02-26T11:32:18;0.60;;;0.60;;
30287;SDS011;17103;48.316;11.558;2023-02-26T11:34:48;0.80;;;0.70;;
30287;SDS011;17103;48.316;11.558;2023-02-26T11:37:34;1.02;;;0.65;;
30287;SDS011;17103;48.316;11.558;2023-02-26T11:40:21;0.80;;;0.50;;
30287;SDS011;17103;48.316;11.558;2023-02-26T11:42:54;0.70;;;0.50;;
30287;SDS011;17103;48.316;11.558;2023-02-26T11:45:23;0.82;;;0.50;;
30287;SDS011;17103;48.316;11.558;2023-02-26T11:47:55;0.70;;;0.40;;
30287;SDS011;17103;48.316;11.558;2023-02-26T11:50:26;1.10;;;0.65;;
30287;SDS011;17103;48.316;11.558;2023-02-26T11:53:03;0.85;;;0.70;;
30287;SDS011;17103;48.316;11.558;2023-02-26T11:55:32;0.63;;;0.50;;
30287;SDS011;17103;48.316;11.558;2023-02-26T11:58:01;0.52;;;0.52;;
30287;SDS011;17103;48.316;11.558;2023-02-26T12:00:40;0.82;;;0.50;;
30287;SDS011;17103;48.316;11.558;2023-02-26T12:03:07;1.77;;;0.60;;
30287;SDS011;17103;48.316;11.558;2023-02-26T12:05:42;1.25;;;0.57;;
30287;SDS011;17103;48.316;11.558;2023-02-26T12:47:58;1.25;;;0.63;;
30287;SDS011;17103;48.316;11.558;2023-02-26T13:02:12;1.00;;;0.70;;
30287;SDS011;17103;48.316;11.558;2023-02-26T13:05:09;3.25;;;1.60;;
30287;SDS011;17103;48.316;11.558;2023-02-26T13:10:48;3.83;;;2.00;;
30287;SDS011;17103;48.316;11.558;2023-02-26T13:13:19;3.17;;;1.65;;
30287;SDS011;17103;48.316;11.558;2023-02-26T13:18:42;1.20;;;0.82;;
30287;SDS011;17103;48.316;11.558;2023-02-26T13:26:20;1.67;;;0.70;;
30287;SDS011;17103;48.316;11.558;2023-02-26T13:28:51;1.08;;;0.93;;
30287;SDS011;17103;48.316;11.558;2023-02-26T13:31:24;2.25;;;0.80;;
30287;SDS011;17103;48.316;11.558;2023-02-26T13:33:57;1.25;;;0.60;;
30287;SDS011;17103;48.316;11.558;2023-02-26T13:36:28;1.25;;;0.82;;
30287;SDS011;17103;48.316;11.558;2023-02-26T13:51:45;1.50;;;0.75;;
30287;SDS011;17103;48.316;11.558;2023-02-26T14:06:48;0.80;;;0.65;;
30287;SDS011;17103;48.316;11.558;2023-02-26T14:14:41;1.15;;;0.75;;
30287;SDS011;17103;48.316;11.558;2023-02-26T14:19:36;0.65;;;0.50;;
30287;SDS011;17103;48.316;11.558;2023-02-26T14:25:00;0.65;;;0.47;;
30287;SDS011;17103;48.316;11.558;2023-02-26T14:27:38;0.30;;;0.30;;
30287;SDS011;17103;48.316;11.558;2023-02-26T14:41:28;0.95;;;0.40;;
30287;SDS011;17103;48.316;11.558;2023-02-26T14:44:02;0.88;;;0.77;;
30287;SDS011;17103;48.316;11.558;2023-02-26T14:46:38;0.68;;;0.52;;
30287;SDS011;17103;48.316;11.558;2023-02-26T14:49:04;1.13;;;0.50;;
30287;SDS011;17103;48.316;11.558;2023-02-26T15:14:04;0.93;;;0.57;;
30287;SDS011;17103;48.316;11.558;2023-02-26T15:25:04;1.80;;;0.88;;
30287;SDS011;17103;48.316;11.558;2023-02-26T15:27:38;0.50;;;0.40;;
30287;SDS011;17103;48.316;11.558;2023-02-26T15:30:04;0.68;;;0.40;;
30287;SDS011;17103;48.316;11.558;2023-02-26T15:32:35;1.15;;;0.60;;
30287;SDS011;17103;48.316;11.558;2023-02-26T15:35:18;1.00;;;0.43;;
30287;SDS011;17103;48.316;11.558;2023-02-26T15:37:52;1.58;;;1.00;;
30287;SDS011;17103;48.316;11.558;2023-02-26T15:40:19;1.70;;;0.90;;
30287;SDS011;17103;48.316;11.558;2023-02-26T15:42:47;1.48;;;0.77;;
30287;SDS011;17103;48.316;11.558;2023-02-26T15:48:05;0.95;;;0.47;;
30287;SDS011;17103;48.316;11.558;2023-02-26T15:50:36;1.00;;;0.47;;
30287;SDS011;17103;48.316;11.558;2023-02-26T15:53:05;1.50;;;0.57;;
30287;SDS011;17103;48.316;11.558;2023-02-26T15:55:35;0.82;;;0.57;;
30287;SDS011;17103;48.316;11.558;2023-02-26T15:58:03;1.20;;;0.60;;
30287;SDS011;17103;48.316;11.558;2023-02-26T16:00:31;0.90;;;0.40;;
30287;SDS011;17103;48.316;11.558;2023-02-26T16:03:00;2.17;;;0.57;;
30287;SDS011;17103;48.316;11.558;2023-02-26T16:05:26;2.50;;;0.77;;
30287;SDS011;17103;48.316;11.558;2023-02-26T16:07:53;1.38;;;0.63;;
30287;SDS011;17103;48.316;11.558;2023-02-26T16:10:27;2.25;;;0.98;;
30287;SDS011;17103;48.316;11.558;2023-02-26T16:13:02;1.48;;;0.70;;
30287;SDS011;17103;48.316;11.558;2023-02-26T16:15:34;1.83;;;0.60;;
30287;SDS011;17103;48.316;11.558;2023-02-26T16:18:03;0.98;;;0.47;;
30287;SDS011;17103;48.316;11.558;2023-02-26T16:20:36;1.50;;;0.50;;
30287;SDS011;17103;48.316;11.558;2023-02-26T16:23:06;1.15;;;0.52;;
30287;SDS011;17103;48.316;11.558;2023-02-26T16:25:42;1.00;;;0.40;;
30287;SDS011;17103;48.316;11.558;2023-02-26T16:28:17;0.57;;;0.43;;
30287;SDS011;17103;48.316;11.558;2023-02-26T16:30:46;0.70;;;0.60;;
30287;SDS011;17103;48.316;11.558;2023-02-26T16:33:15;2.47;;;1.42;;
30287;SDS011;17103;48.316;11.558;2023-02-26T16:35:47;1.80;;;1.58;;
30287;SDS011;17103;48.316;11.558;2023-02-26T16:38:27;2.17;;;1.10;;
30287;SDS011;17103;48.316;11.558;2023-02-26T16:41:00;2.85;;;1.02;;
30287;SDS011;17103;48.316;11.558;2023-02-26T16:43:34;0.75;;;0.60;;
30287;SDS011;17103;48.316;11.558;2023-02-26T16:49:42;0.63;;;0.55;;
30287;SDS011;17103;48.316;11.558;2023-02-26T16:52:03;1.73;;;0.90;;
30287;SDS011;17103;48.316;11.558;2023-02-26T16:54:31;1.27;;;0.47;;
30287;SDS011;17103;48.316;11.558;2023-02-26T16:57:03;1.73;;;0.60;;
30287;SDS011;17103;48.316;11.558;2023-02-26T16:59:36;2.50;;;1.00;;
30287;SDS011;17103;48.316;11.558;2023-02-26T17:02:14;4.60;;;1.45;;
30287;SDS011;17103;48.316;11.558;2023-02-26T17:04:49;1.13;;;0.60;;
30287;SDS011;17103;48.316;11.558;2023-02-26T17:07:33;0.85;;;0.60;;
30287;SDS011;17103;48.316;11.558;2023-02-26T17:10:07;1.35;;;0.50;;
30287;SDS011;17103;48.316;11.558;2023-02-26T17:12:44;1.90;;;1.05;;
30287;SDS011;17103;48.316;11.558;2023-02-26T17:15:18;0.82;;;0.70;;
30287;SDS011;17103;48.316;11.558;2023-02-26T17:17:50;1.40;;;0.70;;
30287;SDS011;17103;48.316;11.558;2023-02-26T17:20:20;2.72;;;0.88;;
30287;SDS011;17103;48.316;11.558;2023-02-26T17:22:47;2.00;;;1.10;;
30287;SDS011;17103;48.316;11.558;2023-02-26T17:25:14;1.65;;;1.02;;
30287;SDS011;17103;48.316;11.558;2023-02-26T17:27:41;2.80;;;1.40;;
30287;SDS011;17103;48.316;11.558;2023-02-26T17:30:08;1.60;;;1.00;;
30287;SDS011;17103;48.316;11.558;2023-02-26T17:32:40;1.20;;;0.73;;
30287;SDS011;17103;48.316;11.558;2023-02-26T17:35:06;1.42;;;0.57;;
30287;SDS011;17103;48.316;11.558;2023-02-26T17:37:33;1.92;;;0.80;;
30287;SDS011;17103;48.316;11.558;2023-02-26T17:40:00;2.55;;;1.83;;
30287;SDS011;17103;48.316;11.558;2023-02-26T17:42:26;2.47;;;1.33;;
30287;SDS011;17103;48.316;11.558;2023-02-26T17:44:52;3.70;;;1.73;;
30287;SDS011;17103;48.316;11.558;2023-02-26T17:47:24;3.72;;;2.33;;
30287;SDS011;17103;48.316;11.558;2023-02-26T17:49:51;3.00;;;1.33;;
30287;SDS011;17103;48.316;11.558;2023-02-26T17:52:18;1.40;;;1.15;;
30287;SDS011;17103;48.316;11.558;2023-02-26T17:54:44;3.10;;;1.30;;
30287;SDS011;17103;48.316;11.558;2023-02-26T17:57:28;1.10;;;0.80;;
30287;SDS011;17103;48.316;11.558;2023-02-26T18:03:21;2.95;;;1.33;;
30287;SDS011;17103;48.316;11.558;2023-02-26T18:05:47;2.05;;;1.20;;
30287;SDS011;17103;48.316;11.558;2023-02-26T18:10:45;2.95;;;1.60;;
30287;SDS011;17103;48.316;11.558;2023-02-26T18:13:12;3.47;;;1.65;;
30287;SDS011;17103;48.316;11.558;2023-02-26T18:15:40;0.93;;;0.82;;
30287;SDS011;17103;48.316;11.558;2023-02-26T18:18:10;2.00;;;1.20;;
30287;SDS011;17103;48.316;11.558;2023-02-26T18:20:37;1.60;;;1.42;;
30287;SDS011;17103;48.316;11.558;2023-02-26T18:23:05;1.38;;;1.27;;
30287;SDS011;17103;48.316;11.558;2023-02-26T18:25:32;1.65;;;1.55;;
30287;SDS011;17103;48.316;11.558;2023-02-26T18:28:01;1.95;;;1.30;;
30287;SDS011;17103;48.316;11.558;2023-02-26T18:30:30;2.10;;;1.40;;
30287;SDS011;17103;48.316;11.558;2023-02-26T18:32:58;1.77;;;1.50;;
30287;SDS011;17103;48.316;11.558;2023-02-26T18:35:24;2.35;;;1.40;;
30287;SDS011;17103;48.316;11.558;2023-02-26T18:37:52;2.25;;;1.75;;
30287;SDS011;17103;48.316;11.558;2023-02-26T18:40:19;3.75;;;2.45;;
30287;SDS011;17103;48.316;11.558;2023-02-26T18:42:47;4.88;;;2.90;;
30287;SDS011;17103;48.316;11.558;2023-02-26T18:45:13;3.85;;;1.70;;
30287;SDS011;17103;48.316;11.558;2023-02-26T18:47:39;1.77;;;1.10;;